KENL/ENL METAR and TAF weather

Enter ICAO airport designator
Station Type Date Time Source
KENL METAR 2022/01/26 14:55 UTC NOAA

KENL 261455Z AUTO 04003KT 10SM CLR M13/M19 A3057 RMK AO2 T11301186


Station Type Date Time Source
KENL Decoded METAR 2022/01/26 14:55 UTC NOAA

Centralia, Centralia Municipal Airport, IL, United States (KENL) 38-30-53N 089-05-32W
Jan 26, 2022 - 09:55 AM EST / 2022.01.26 1455 UTC
Wind: from the NE (040 degrees) at 3 MPH (3 KT):0
Visibility: 10 mile(s):0
Sky conditions: clear
Temperature: 8.6 F (-13.0 C)
Dew Point: -1.5 F (-18.6 C)
Relative Humidity: 62%
Pressure (altimeter): 30.57 in. Hg (1035 hPa)
ob: KENL 261455Z AUTO 04003KT 10SM CLR M13/M19 A3057 RMK AO2 T11301186
cycle: 15

Station Type Date Time Source
KENL TAF UTC NOAA

Error!

Example: see airport list